Current Conditions
Gedeeltelijk Bewolkt



Rainfall
0.00 (mm) - 0.00 (in)
Pressure
1011.92 (hPa) - 29.88 (inHG)
Visibility

10.0 (km) - 6.2 (miles)
   Temperature
17  °C
63°F
14  °C
Dewpoint
83  %
 Humidity
   Wind Speed
27  km/h
15  kts
17  mph
7.6  m/s
   Wind Direction
 230°
South West
   Airport Data
EHLE
Location Lelystad Airport 20 km (12.43 mi)
Metar :EHLE 271525Z AUTO 23015KT 190V250 9999 DZ FEW030 17/14 Q1012 NOSIG
Mon 27th September 17:25 pm
   Raw Metar Info
Raw METAR is the most common format in the world for the transmission of observational weather data. It is highly standardized through the International Civil Aviation Organization (ICAO), which allows it to be understood throughout most of the world.
   API Info
Data Provided by
https://www.checkwx.com/weather/EHLE
   © Info
CSS/SVG/PHP scripts were developed by weather34.com for use in the weather34 template © 2015-2021

Guide Info provided by Metar-Wikipedia